sensor_id;sensor_type;location;lat;lon;timestamp;P1;durP1;ratioP1;P2;durP2;ratioP2
65737;SDS011;52478;51.844;6.582;2022-10-16T00:01:38;4.93;;;1.98;;
65737;SDS011;52478;51.844;6.582;2022-10-16T00:04:05;5.22;;;2.05;;
65737;SDS011;52478;51.844;6.582;2022-10-16T00:06:32;4.50;;;1.48;;
65737;SDS011;52478;51.844;6.582;2022-10-16T00:08:58;4.25;;;2.05;;
65737;SDS011;52478;51.844;6.582;2022-10-16T00:11:25;4.50;;;1.80;;
65737;SDS011;52478;51.844;6.582;2022-10-16T00:13:55;7.03;;;2.15;;
65737;SDS011;52478;51.844;6.582;2022-10-16T00:16:24;5.63;;;1.63;;
65737;SDS011;52478;51.844;6.582;2022-10-16T00:18:51;4.50;;;1.88;;
65737;SDS011;52478;51.844;6.582;2022-10-16T00:21:19;4.13;;;1.60;;
65737;SDS011;52478;51.844;6.582;2022-10-16T00:23:49;5.70;;;1.95;;
65737;SDS011;52478;51.844;6.582;2022-10-16T00:26:17;4.72;;;1.58;;
65737;SDS011;52478;51.844;6.582;2022-10-16T00:31:12;4.90;;;1.63;;
65737;SDS011;52478;51.844;6.582;2022-10-16T00:33:40;4.80;;;1.80;;
65737;SDS011;52478;51.844;6.582;2022-10-16T00:36:07;5.00;;;1.70;;
65737;SDS011;52478;51.844;6.582;2022-10-16T00:38:36;5.57;;;1.80;;
65737;SDS011;52478;51.844;6.582;2022-10-16T00:41:03;5.13;;;1.83;;
65737;SDS011;52478;51.844;6.582;2022-10-16T00:43:34;5.18;;;1.98;;
65737;SDS011;52478;51.844;6.582;2022-10-16T00:46:03;4.80;;;1.90;;
65737;SDS011;52478;51.844;6.582;2022-10-16T00:48:31;4.32;;;1.50;;
65737;SDS011;52478;51.844;6.582;2022-10-16T00:50:59;4.78;;;1.70;;
65737;SDS011;52478;51.844;6.582;2022-10-16T00:53:26;5.30;;;1.60;;
65737;SDS011;52478;51.844;6.582;2022-10-16T00:55:53;5.18;;;1.90;;
65737;SDS011;52478;51.844;6.582;2022-10-16T00:58:20;5.25;;;2.13;;
65737;SDS011;52478;51.844;6.582;2022-10-16T01:00:47;4.60;;;1.90;;
65737;SDS011;52478;51.844;6.582;2022-10-16T01:03:23;4.43;;;1.63;;
65737;SDS011;52478;51.844;6.582;2022-10-16T01:05:54;4.43;;;1.75;;
65737;SDS011;52478;51.844;6.582;2022-10-16T01:08:34;4.53;;;1.98;;
65737;SDS011;52478;51.844;6.582;2022-10-16T01:11:06;5.72;;;1.73;;
65737;SDS011;52478;51.844;6.582;2022-10-16T01:13:40;5.45;;;1.88;;
65737;SDS011;52478;51.844;6.582;2022-10-16T01:16:11;4.57;;;1.70;;
65737;SDS011;52478;51.844;6.582;2022-10-16T01:18:43;5.53;;;1.70;;
65737;SDS011;52478;51.844;6.582;2022-10-16T01:21:14;4.63;;;1.70;;
65737;SDS011;52478;51.844;6.582;2022-10-16T01:23:47;5.65;;;1.75;;
65737;SDS011;52478;51.844;6.582;2022-10-16T01:26:30;5.07;;;2.10;;
65737;SDS011;52478;51.844;6.582;2022-10-16T01:29:12;4.70;;;1.70;;
65737;SDS011;52478;51.844;6.582;2022-10-16T01:31:44;5.07;;;1.60;;
65737;SDS011;52478;51.844;6.582;2022-10-16T01:34:17;4.35;;;1.45;;
65737;SDS011;52478;51.844;6.582;2022-10-16T01:36:47;4.72;;;1.63;;
65737;SDS011;52478;51.844;6.582;2022-10-16T01:39:18;4.47;;;1.60;;
65737;SDS011;52478;51.844;6.582;2022-10-16T01:41:48;5.15;;;2.05;;
65737;SDS011;52478;51.844;6.582;2022-10-16T01:44:22;4.60;;;1.73;;
65737;SDS011;52478;51.844;6.582;2022-10-16T01:46:53;5.22;;;1.63;;
65737;SDS011;52478;51.844;6.582;2022-10-16T01:49:21;4.40;;;1.58;;
65737;SDS011;52478;51.844;6.582;2022-10-16T01:51:52;4.80;;;1.58;;
65737;SDS011;52478;51.844;6.582;2022-10-16T01:54:22;4.90;;;1.98;;
65737;SDS011;52478;51.844;6.582;2022-10-16T01:56:51;5.75;;;2.10;;
65737;SDS011;52478;51.844;6.582;2022-10-16T01:59:21;4.85;;;1.60;;
65737;SDS011;52478;51.844;6.582;2022-10-16T02:01:52;4.72;;;1.75;;
65737;SDS011;52478;51.844;6.582;2022-10-16T02:04:22;5.15;;;2.05;;
65737;SDS011;52478;51.844;6.582;2022-10-16T02:07:04;4.53;;;1.83;;
65737;SDS011;52478;51.844;6.582;2022-10-16T02:09:32;4.60;;;1.70;;
65737;SDS011;52478;51.844;6.582;2022-10-16T02:11:59;5.00;;;1.98;;
65737;SDS011;52478;51.844;6.582;2022-10-16T02:14:30;5.15;;;1.80;;
65737;SDS011;52478;51.844;6.582;2022-10-16T02:16:57;4.70;;;1.42;;
65737;SDS011;52478;51.844;6.582;2022-10-16T02:19:23;5.38;;;1.73;;
65737;SDS011;52478;51.844;6.582;2022-10-16T02:21:51;4.60;;;1.73;;
65737;SDS011;52478;51.844;6.582;2022-10-16T02:24:23;4.28;;;1.52;;
65737;SDS011;52478;51.844;6.582;2022-10-16T02:26:57;5.10;;;1.67;;
65737;SDS011;52478;51.844;6.582;2022-10-16T02:29:31;5.10;;;1.80;;
65737;SDS011;52478;51.844;6.582;2022-10-16T02:32:00;5.30;;;2.20;;
65737;SDS011;52478;51.844;6.582;2022-10-16T02:34:30;4.82;;;1.83;;
65737;SDS011;52478;51.844;6.582;2022-10-16T02:36:58;4.55;;;1.58;;
65737;SDS011;52478;51.844;6.582;2022-10-16T02:39:27;5.03;;;1.65;;
65737;SDS011;52478;51.844;6.582;2022-10-16T02:41:54;4.80;;;1.50;;
65737;SDS011;52478;51.844;6.582;2022-10-16T02:44:21;4.65;;;1.63;;
65737;SDS011;52478;51.844;6.582;2022-10-16T02:46:49;5.20;;;1.80;;
65737;SDS011;52478;51.844;6.582;2022-10-16T02:49:15;5.03;;;2.00;;
65737;SDS011;52478;51.844;6.582;2022-10-16T02:51:43;4.50;;;1.60;;
65737;SDS011;52478;51.844;6.582;2022-10-16T02:54:09;5.03;;;1.88;;
65737;SDS011;52478;51.844;6.582;2022-10-16T02:56:35;4.45;;;1.83;;
65737;SDS011;52478;51.844;6.582;2022-10-16T02:59:02;4.85;;;1.60;;
65737;SDS011;52478;51.844;6.582;2022-10-16T03:01:29;4.47;;;1.88;;
65737;SDS011;52478;51.844;6.582;2022-10-16T03:03:57;4.20;;;1.85;;
65737;SDS011;52478;51.844;6.582;2022-10-16T03:06:23;4.80;;;1.80;;
65737;SDS011;52478;51.844;6.582;2022-10-16T03:08:50;4.30;;;1.52;;
65737;SDS011;52478;51.844;6.582;2022-10-16T03:11:16;5.43;;;1.85;;
65737;SDS011;52478;51.844;6.582;2022-10-16T03:13:43;4.70;;;1.50;;
65737;SDS011;52478;51.844;6.582;2022-10-16T03:16:09;4.47;;;1.40;;
65737;SDS011;52478;51.844;6.582;2022-10-16T03:18:36;4.60;;;2.03;;
65737;SDS011;52478;51.844;6.582;2022-10-16T03:21:04;4.55;;;1.60;;
65737;SDS011;52478;51.844;6.582;2022-10-16T03:23:30;5.63;;;1.90;;
65737;SDS011;52478;51.844;6.582;2022-10-16T03:25:57;4.38;;;1.60;;
65737;SDS011;52478;51.844;6.582;2022-10-16T03:28:24;4.07;;;1.35;;
65737;SDS011;52478;51.844;6.582;2022-10-16T03:30:50;5.60;;;1.92;;
65737;SDS011;52478;51.844;6.582;2022-10-16T03:33:16;4.20;;;1.60;;
65737;SDS011;52478;51.844;6.582;2022-10-16T03:35:43;5.50;;;1.88;;
65737;SDS011;52478;51.844;6.582;2022-10-16T03:38:18;5.47;;;1.40;;
65737;SDS011;52478;51.844;6.582;2022-10-16T03:40:45;4.18;;;1.60;;
65737;SDS011;52478;51.844;6.582;2022-10-16T03:43:11;4.45;;;1.48;;
65737;SDS011;52478;51.844;6.582;2022-10-16T03:45:38;4.78;;;1.80;;
65737;SDS011;52478;51.844;6.582;2022-10-16T03:48:05;4.40;;;1.77;;
65737;SDS011;52478;51.844;6.582;2022-10-16T03:50:31;4.13;;;1.70;;
65737;SDS011;52478;51.844;6.582;2022-10-16T03:52:58;5.30;;;1.73;;
65737;SDS011;52478;51.844;6.582;2022-10-16T03:55:26;4.03;;;1.40;;
65737;SDS011;52478;51.844;6.582;2022-10-16T03:57:52;4.78;;;1.60;;
65737;SDS011;52478;51.844;6.582;2022-10-16T04:00:19;4.40;;;1.80;;
65737;SDS011;52478;51.844;6.582;2022-10-16T04:02:45;4.70;;;1.70;;
65737;SDS011;52478;51.844;6.582;2022-10-16T04:05:12;4.72;;;1.60;;
65737;SDS011;52478;51.844;6.582;2022-10-16T04:07:38;4.45;;;1.83;;
65737;SDS011;52478;51.844;6.582;2022-10-16T04:10:05;5.20;;;1.90;;
65737;SDS011;52478;51.844;6.582;2022-10-16T04:12:33;4.57;;;1.73;;
65737;SDS011;52478;51.844;6.582;2022-10-16T04:15:00;4.88;;;1.60;;
65737;SDS011;52478;51.844;6.582;2022-10-16T04:17:26;4.70;;;1.65;;
65737;SDS011;52478;51.844;6.582;2022-10-16T04:19:53;4.20;;;1.63;;
65737;SDS011;52478;51.844;6.582;2022-10-16T04:22:19;4.78;;;1.58;;
65737;SDS011;52478;51.844;6.582;2022-10-16T04:24:46;5.30;;;1.33;;
65737;SDS011;52478;51.844;6.582;2022-10-16T04:27:12;4.20;;;1.40;;
65737;SDS011;52478;51.844;6.582;2022-10-16T04:29:40;5.05;;;1.70;;
65737;SDS011;52478;51.844;6.582;2022-10-16T04:32:07;4.53;;;1.50;;
65737;SDS011;52478;51.844;6.582;2022-10-16T04:34:35;4.30;;;1.48;;
65737;SDS011;52478;51.844;6.582;2022-10-16T04:37:02;4.45;;;1.60;;
65737;SDS011;52478;51.844;6.582;2022-10-16T04:39:29;4.50;;;1.50;;
65737;SDS011;52478;51.844;6.582;2022-10-16T04:41:55;4.70;;;1.80;;
65737;SDS011;52478;51.844;6.582;2022-10-16T04:44:22;4.95;;;1.50;;
65737;SDS011;52478;51.844;6.582;2022-10-16T04:46:51;4.60;;;1.88;;
65737;SDS011;52478;51.844;6.582;2022-10-16T04:49:17;4.40;;;1.42;;
65737;SDS011;52478;51.844;6.582;2022-10-16T04:51:44;4.30;;;1.60;;
65737;SDS011;52478;51.844;6.582;2022-10-16T04:54:10;4.70;;;1.70;;
65737;SDS011;52478;51.844;6.582;2022-10-16T04:56:37;5.88;;;1.90;;
65737;SDS011;52478;51.844;6.582;2022-10-16T04:59:11;4.32;;;1.63;;
65737;SDS011;52478;51.844;6.582;2022-10-16T05:01:38;4.32;;;1.40;;
65737;SDS011;52478;51.844;6.582;2022-10-16T05:04:06;4.32;;;1.40;;
65737;SDS011;52478;51.844;6.582;2022-10-16T05:06:33;4.70;;;1.80;;
65737;SDS011;52478;51.844;6.582;2022-10-16T05:08:59;4.70;;;1.73;;
65737;SDS011;52478;51.844;6.582;2022-10-16T05:11:26;4.68;;;1.70;;
65737;SDS011;52478;51.844;6.582;2022-10-16T05:13:52;4.00;;;1.40;;
65737;SDS011;52478;51.844;6.582;2022-10-16T05:16:19;4.20;;;1.50;;
65737;SDS011;52478;51.844;6.582;2022-10-16T05:18:45;4.40;;;1.40;;
65737;SDS011;52478;51.844;6.582;2022-10-16T05:21:13;4.28;;;1.35;;
65737;SDS011;52478;51.844;6.582;2022-10-16T05:23:40;4.07;;;1.30;;
65737;SDS011;52478;51.844;6.582;2022-10-16T05:26:06;4.72;;;1.70;;
65737;SDS011;52478;51.844;6.582;2022-10-16T05:28:33;4.15;;;1.40;;
65737;SDS011;52478;51.844;6.582;2022-10-16T05:31:03;5.63;;;1.70;;
65737;SDS011;52478;51.844;6.582;2022-10-16T05:33:30;6.10;;;1.70;;
65737;SDS011;52478;51.844;6.582;2022-10-16T05:36:00;4.55;;;1.60;;
65737;SDS011;52478;51.844;6.582;2022-10-16T05:38:29;4.30;;;1.65;;
65737;SDS011;52478;51.844;6.582;2022-10-16T05:40:56;4.30;;;1.60;;
65737;SDS011;52478;51.844;6.582;2022-10-16T05:45:55;5.05;;;1.42;;
65737;SDS011;52478;51.844;6.582;2022-10-16T05:48:22;4.15;;;1.33;;
65737;SDS011;52478;51.844;6.582;2022-10-16T05:50:55;4.10;;;1.38;;
65737;SDS011;52478;51.844;6.582;2022-10-16T05:53:22;3.80;;;1.23;;
65737;SDS011;52478;51.844;6.582;2022-10-16T05:55:53;4.45;;;1.30;;
65737;SDS011;52478;51.844;6.582;2022-10-16T05:58:19;4.05;;;1.33;;
65737;SDS011;52478;51.844;6.582;2022-10-16T06:00:52;4.32;;;1.80;;
65737;SDS011;52478;51.844;6.582;2022-10-16T06:03:19;4.40;;;1.40;;
65737;SDS011;52478;51.844;6.582;2022-10-16T06:05:45;5.15;;;1.88;;
65737;SDS011;52478;51.844;6.582;2022-10-16T06:08:12;5.15;;;1.70;;
65737;SDS011;52478;51.844;6.582;2022-10-16T06:10:38;4.18;;;1.65;;
65737;SDS011;52478;51.844;6.582;2022-10-16T06:13:06;4.30;;;1.35;;
65737;SDS011;52478;51.844;6.582;2022-10-16T06:15:32;4.10;;;1.30;;
65737;SDS011;52478;51.844;6.582;2022-10-16T06:17:59;4.70;;;1.50;;
65737;SDS011;52478;51.844;6.582;2022-10-16T06:20:26;7.10;;;1.70;;
65737;SDS011;52478;51.844;6.582;2022-10-16T06:22:52;4.75;;;1.65;;
65737;SDS011;52478;51.844;6.582;2022-10-16T06:25:19;4.18;;;1.40;;
65737;SDS011;52478;51.844;6.582;2022-10-16T06:27:46;4.25;;;1.35;;
65737;SDS011;52478;51.844;6.582;2022-10-16T06:30:14;3.97;;;1.60;;
65737;SDS011;52478;51.844;6.582;2022-10-16T06:32:40;3.95;;;1.40;;
65737;SDS011;52478;51.844;6.582;2022-10-16T06:35:07;4.97;;;1.60;;
65737;SDS011;52478;51.844;6.582;2022-10-16T06:37:33;4.32;;;1.42;;
65737;SDS011;52478;51.844;6.582;2022-10-16T06:40:00;3.83;;;1.30;;
65737;SDS011;52478;51.844;6.582;2022-10-16T06:42:29;4.57;;;1.70;;
65737;SDS011;52478;51.844;6.582;2022-10-16T06:44:56;3.83;;;1.30;;
65737;SDS011;52478;51.844;6.582;2022-10-16T06:47:23;3.60;;;1.25;;
65737;SDS011;52478;51.844;6.582;2022-10-16T06:49:50;4.15;;;1.33;;
65737;SDS011;52478;51.844;6.582;2022-10-16T06:52:17;4.55;;;1.60;;
65737;SDS011;52478;51.844;6.582;2022-10-16T06:54:43;4.38;;;1.35;;
65737;SDS011;52478;51.844;6.582;2022-10-16T06:57:10;4.50;;;1.60;;
65737;SDS011;52478;51.844;6.582;2022-10-16T06:59:36;4.07;;;1.33;;
65737;SDS011;52478;51.844;6.582;2022-10-16T07:02:02;3.92;;;1.30;;
65737;SDS011;52478;51.844;6.582;2022-10-16T07:04:30;3.47;;;1.13;;
65737;SDS011;52478;51.844;6.582;2022-10-16T07:06:57;4.30;;;1.70;;
65737;SDS011;52478;51.844;6.582;2022-10-16T07:09:26;3.75;;;1.35;;
65737;SDS011;52478;51.844;6.582;2022-10-16T07:11:52;4.35;;;1.33;;
65737;SDS011;52478;51.844;6.582;2022-10-16T07:14:19;4.38;;;1.60;;
65737;SDS011;52478;51.844;6.582;2022-10-16T07:16:47;4.20;;;1.30;;
65737;SDS011;52478;51.844;6.582;2022-10-16T07:21:44;4.63;;;1.63;;
65737;SDS011;52478;51.844;6.582;2022-10-16T07:24:11;4.13;;;1.73;;
65737;SDS011;52478;51.844;6.582;2022-10-16T07:26:39;4.07;;;1.60;;
65737;SDS011;52478;51.844;6.582;2022-10-16T07:29:08;3.90;;;1.58;;
65737;SDS011;52478;51.844;6.582;2022-10-16T07:31:38;3.75;;;1.30;;
65737;SDS011;52478;51.844;6.582;2022-10-16T07:34:05;3.35;;;1.40;;
65737;SDS011;52478;51.844;6.582;2022-10-16T07:36:31;4.30;;;1.35;;
65737;SDS011;52478;51.844;6.582;2022-10-16T07:38:59;4.00;;;1.58;;
65737;SDS011;52478;51.844;6.582;2022-10-16T07:41:26;3.92;;;1.30;;
65737;SDS011;52478;51.844;6.582;2022-10-16T07:43:53;4.70;;;1.75;;
65737;SDS011;52478;51.844;6.582;2022-10-16T07:46:22;4.13;;;1.42;;
65737;SDS011;52478;51.844;6.582;2022-10-16T07:48:49;4.05;;;1.30;;
65737;SDS011;52478;51.844;6.582;2022-10-16T07:51:16;3.85;;;1.17;;
65737;SDS011;52478;51.844;6.582;2022-10-16T07:53:44;4.50;;;1.75;;
65737;SDS011;52478;51.844;6.582;2022-10-16T07:56:12;4.32;;;1.50;;
65737;SDS011;52478;51.844;6.582;2022-10-16T07:58:39;5.07;;;1.45;;
65737;SDS011;52478;51.844;6.582;2022-10-16T08:01:06;3.85;;;1.25;;
65737;SDS011;52478;51.844;6.582;2022-10-16T08:03:34;3.72;;;1.23;;
65737;SDS011;52478;51.844;6.582;2022-10-16T08:06:00;3.45;;;1.33;;
65737;SDS011;52478;51.844;6.582;2022-10-16T08:10:54;3.95;;;1.30;;
65737;SDS011;52478;51.844;6.582;2022-10-16T08:13:22;3.83;;;1.20;;
65737;SDS011;52478;51.844;6.582;2022-10-16T08:15:49;4.32;;;1.42;;
65737;SDS011;52478;51.844;6.582;2022-10-16T08:18:15;6.82;;;1.40;;
65737;SDS011;52478;51.844;6.582;2022-10-16T08:23:09;4.70;;;1.40;;
65737;SDS011;52478;51.844;6.582;2022-10-16T08:25:37;4.35;;;1.30;;
65737;SDS011;52478;51.844;6.582;2022-10-16T08:28:04;4.57;;;1.27;;
65737;SDS011;52478;51.844;6.582;2022-10-16T08:30:32;4.35;;;1.50;;
65737;SDS011;52478;51.844;6.582;2022-10-16T08:32:59;4.70;;;1.67;;
65737;SDS011;52478;51.844;6.582;2022-10-16T08:35:27;4.47;;;1.40;;
65737;SDS011;52478;51.844;6.582;2022-10-16T08:37:54;4.60;;;1.33;;
65737;SDS011;52478;51.844;6.582;2022-10-16T08:40:22;4.88;;;1.50;;
65737;SDS011;52478;51.844;6.582;2022-10-16T08:42:54;4.95;;;1.50;;
65737;SDS011;52478;51.844;6.582;2022-10-16T08:45:34;3.78;;;1.42;;
65737;SDS011;52478;51.844;6.582;2022-10-16T08:48:14;4.72;;;1.35;;
65737;SDS011;52478;51.844;6.582;2022-10-16T08:50:45;4.22;;;1.20;;
65737;SDS011;52478;51.844;6.582;2022-10-16T08:53:15;5.13;;;1.50;;
65737;SDS011;52478;51.844;6.582;2022-10-16T08:55:49;4.10;;;1.35;;
65737;SDS011;52478;51.844;6.582;2022-10-16T08:58:18;4.18;;;1.40;;
65737;SDS011;52478;51.844;6.582;2022-10-16T09:00:47;3.55;;;1.40;;
65737;SDS011;52478;51.844;6.582;2022-10-16T09:03:24;5.20;;;1.85;;
65737;SDS011;52478;51.844;6.582;2022-10-16T09:06:06;5.30;;;1.52;;
65737;SDS011;52478;51.844;6.582;2022-10-16T09:08:42;4.40;;;1.30;;
65737;SDS011;52478;51.844;6.582;2022-10-16T09:11:14;4.05;;;1.50;;
65737;SDS011;52478;51.844;6.582;2022-10-16T09:13:50;5.30;;;1.35;;
65737;SDS011;52478;51.844;6.582;2022-10-16T09:18:54;7.07;;;1.90;;
65737;SDS011;52478;51.844;6.582;2022-10-16T09:21:27;5.55;;;1.77;;
65737;SDS011;52478;51.844;6.582;2022-10-16T09:23:57;4.10;;;1.30;;
65737;SDS011;52478;51.844;6.582;2022-10-16T09:26:26;5.55;;;1.52;;
65737;SDS011;52478;51.844;6.582;2022-10-16T09:28:52;4.30;;;1.45;;
65737;SDS011;52478;51.844;6.582;2022-10-16T09:31:20;4.85;;;1.45;;
65737;SDS011;52478;51.844;6.582;2022-10-16T09:33:50;3.97;;;1.33;;
65737;SDS011;52478;51.844;6.582;2022-10-16T09:36:20;5.85;;;1.40;;
65737;SDS011;52478;51.844;6.582;2022-10-16T09:38:47;5.97;;;1.70;;
65737;SDS011;52478;51.844;6.582;2022-10-16T09:41:16;4.68;;;1.48;;
65737;SDS011;52478;51.844;6.582;2022-10-16T09:43:48;5.82;;;1.67;;
65737;SDS011;52478;51.844;6.582;2022-10-16T09:46:22;4.47;;;1.48;;
65737;SDS011;52478;51.844;6.582;2022-10-16T09:48:55;6.60;;;1.90;;
65737;SDS011;52478;51.844;6.582;2022-10-16T09:51:24;5.30;;;1.60;;
65737;SDS011;52478;51.844;6.582;2022-10-16T09:53:54;5.90;;;1.40;;
65737;SDS011;52478;51.844;6.582;2022-10-16T09:56:22;3.90;;;1.30;;
65737;SDS011;52478;51.844;6.582;2022-10-16T09:58:50;4.57;;;1.58;;
65737;SDS011;52478;51.844;6.582;2022-10-16T10:01:17;5.32;;;1.60;;
65737;SDS011;52478;51.844;6.582;2022-10-16T10:03:45;6.32;;;1.70;;
65737;SDS011;52478;51.844;6.582;2022-10-16T10:06:17;5.38;;;1.50;;
65737;SDS011;52478;51.844;6.582;2022-10-16T10:08:57;4.68;;;1.48;;
65737;SDS011;52478;51.844;6.582;2022-10-16T10:14:24;4.53;;;1.58;;
65737;SDS011;52478;51.844;6.582;2022-10-16T10:17:02;5.57;;;1.52;;
65737;SDS011;52478;51.844;6.582;2022-10-16T10:19:37;4.80;;;1.50;;
65737;SDS011;52478;51.844;6.582;2022-10-16T10:22:15;5.50;;;1.58;;
65737;SDS011;52478;51.844;6.582;2022-10-16T10:24:43;5.32;;;1.50;;
65737;SDS011;52478;51.844;6.582;2022-10-16T10:27:10;4.78;;;1.67;;
65737;SDS011;52478;51.844;6.582;2022-10-16T10:29:45;4.75;;;1.30;;
65737;SDS011;52478;51.844;6.582;2022-10-16T10:32:22;4.90;;;1.40;;
65737;SDS011;52478;51.844;6.582;2022-10-16T10:34:57;4.85;;;1.40;;
65737;SDS011;52478;51.844;6.582;2022-10-16T10:37:37;4.45;;;1.70;;
65737;SDS011;52478;51.844;6.582;2022-10-16T10:40:22;4.47;;;1.30;;
65737;SDS011;52478;51.844;6.582;2022-10-16T10:42:57;7.55;;;2.05;;
65737;SDS011;52478;51.844;6.582;2022-10-16T10:45:36;7.60;;;2.30;;
65737;SDS011;52478;51.844;6.582;2022-10-16T10:48:14;7.15;;;2.67;;
65737;SDS011;52478;51.844;6.582;2022-10-16T10:50:51;10.27;;;2.83;;
65737;SDS011;52478;51.844;6.582;2022-10-16T10:53:28;8.80;;;2.42;;
65737;SDS011;52478;51.844;6.582;2022-10-16T10:56:05;9.18;;;2.75;;
65737;SDS011;52478;51.844;6.582;2022-10-16T10:58:55;10.10;;;3.00;;
65737;SDS011;52478;51.844;6.582;2022-10-16T11:01:37;10.10;;;2.60;;
65737;SDS011;52478;51.844;6.582;2022-10-16T11:04:14;8.95;;;2.47;;
65737;SDS011;52478;51.844;6.582;2022-10-16T11:06:55;8.77;;;2.72;;
65737;SDS011;52478;51.844;6.582;2022-10-16T11:09:27;7.78;;;3.30;;
65737;SDS011;52478;51.844;6.582;2022-10-16T11:11:59;11.52;;;3.35;;
65737;SDS011;52478;51.844;6.582;2022-10-16T11:14:32;10.15;;;3.03;;
65737;SDS011;52478;51.844;6.582;2022-10-16T11:17:04;8.57;;;2.72;;
65737;SDS011;52478;51.844;6.582;2022-10-16T11:19:37;10.70;;;2.72;;
65737;SDS011;52478;51.844;6.582;2022-10-16T11:22:09;9.18;;;2.80;;
65737;SDS011;52478;51.844;6.582;2022-10-16T11:24:42;10.15;;;3.10;;
65737;SDS011;52478;51.844;6.582;2022-10-16T11:27:15;7.85;;;2.78;;
65737;SDS011;52478;51.844;6.582;2022-10-16T11:29:46;8.75;;;2.70;;
65737;SDS011;52478;51.844;6.582;2022-10-16T11:32:19;11.68;;;2.72;;
65737;SDS011;52478;51.844;6.582;2022-10-16T11:34:50;8.50;;;2.85;;
65737;SDS011;52478;51.844;6.582;2022-10-16T11:37:23;8.73;;;2.80;;
65737;SDS011;52478;51.844;6.582;2022-10-16T11:39:58;8.32;;;2.75;;
65737;SDS011;52478;51.844;6.582;2022-10-16T11:42:37;8.23;;;2.22;;
65737;SDS011;52478;51.844;6.582;2022-10-16T11:45:13;10.75;;;2.70;;
65737;SDS011;52478;51.844;6.582;2022-10-16T11:47:51;9.57;;;2.45;;
65737;SDS011;52478;51.844;6.582;2022-10-16T11:50:23;9.55;;;2.70;;
65737;SDS011;52478;51.844;6.582;2022-10-16T11:52:55;8.38;;;2.30;;
65737;SDS011;52478;51.844;6.582;2022-10-16T11:55:28;9.32;;;2.72;;
65737;SDS011;52478;51.844;6.582;2022-10-16T11:57:59;6.93;;;2.17;;
65737;SDS011;52478;51.844;6.582;2022-10-16T12:00:30;8.07;;;2.60;;
65737;SDS011;52478;51.844;6.582;2022-10-16T12:03:03;7.57;;;2.63;;
65737;SDS011;52478;51.844;6.582;2022-10-16T12:05:44;7.95;;;2.38;;
65737;SDS011;52478;51.844;6.582;2022-10-16T12:08:21;8.93;;;2.22;;
65737;SDS011;52478;51.844;6.582;2022-10-16T12:10:49;8.07;;;2.53;;
65737;SDS011;52478;51.844;6.582;2022-10-16T12:13:28;8.43;;;2.40;;
65737;SDS011;52478;51.844;6.582;2022-10-16T12:16:06;8.05;;;2.33;;
65737;SDS011;52478;51.844;6.582;2022-10-16T12:18:45;8.50;;;2.20;;
65737;SDS011;52478;51.844;6.582;2022-10-16T12:21:13;7.90;;;2.17;;
65737;SDS011;52478;51.844;6.582;2022-10-16T12:23:46;7.05;;;2.10;;
65737;SDS011;52478;51.844;6.582;2022-10-16T12:26:15;7.35;;;2.28;;
65737;SDS011;52478;51.844;6.582;2022-10-16T12:28:50;7.88;;;2.22;;
65737;SDS011;52478;51.844;6.582;2022-10-16T12:31:17;7.00;;;2.22;;
65737;SDS011;52478;51.844;6.582;2022-10-16T12:33:51;6.70;;;2.53;;
65737;SDS011;52478;51.844;6.582;2022-10-16T12:36:26;10.45;;;2.50;;
65737;SDS011;52478;51.844;6.582;2022-10-16T12:38:55;10.95;;;2.25;;
65737;SDS011;52478;51.844;6.582;2022-10-16T12:41:27;7.82;;;2.50;;
65737;SDS011;52478;51.844;6.582;2022-10-16T12:43:54;8.55;;;2.03;;
65737;SDS011;52478;51.844;6.582;2022-10-16T12:48:49;9.43;;;2.10;;
65737;SDS011;52478;51.844;6.582;2022-10-16T12:51:24;7.55;;;2.05;;
65737;SDS011;52478;51.844;6.582;2022-10-16T12:53:59;8.45;;;2.33;;
65737;SDS011;52478;51.844;6.582;2022-10-16T12:56:31;7.82;;;2.22;;
65737;SDS011;52478;51.844;6.582;2022-10-16T12:59:09;8.38;;;2.22;;
65737;SDS011;52478;51.844;6.582;2022-10-16T13:01:49;6.97;;;2.42;;
65737;SDS011;52478;51.844;6.582;2022-10-16T13:07:14;8.00;;;2.33;;
65737;SDS011;52478;51.844;6.582;2022-10-16T13:09:52;8.05;;;2.00;;
65737;SDS011;52478;51.844;6.582;2022-10-16T13:12:49;8.05;;;2.50;;
65737;SDS011;52478;51.844;6.582;2022-10-16T13:15:27;7.95;;;2.47;;
65737;SDS011;52478;51.844;6.582;2022-10-16T13:18:03;7.00;;;1.95;;
65737;SDS011;52478;51.844;6.582;2022-10-16T13:20:40;7.05;;;2.20;;
65737;SDS011;52478;51.844;6.582;2022-10-16T13:23:23;7.97;;;2.10;;
65737;SDS011;52478;51.844;6.582;2022-10-16T13:25:58;9.52;;;2.55;;
65737;SDS011;52478;51.844;6.582;2022-10-16T13:28:37;7.90;;;2.45;;
65737;SDS011;52478;51.844;6.582;2022-10-16T13:31:05;7.80;;;1.83;;
65737;SDS011;52478;51.844;6.582;2022-10-16T13:33:41;6.32;;;1.83;;
65737;SDS011;52478;51.844;6.582;2022-10-16T13:36:17;6.13;;;1.75;;
65737;SDS011;52478;51.844;6.582;2022-10-16T13:41:13;6.55;;;2.00;;
65737;SDS011;52478;51.844;6.582;2022-10-16T13:43:43;7.75;;;1.98;;
65737;SDS011;52478;51.844;6.582;2022-10-16T13:46:13;7.22;;;2.05;;
65737;SDS011;52478;51.844;6.582;2022-10-16T13:48:41;6.85;;;1.98;;
65737;SDS011;52478;51.844;6.582;2022-10-16T13:51:12;8.15;;;2.30;;
65737;SDS011;52478;51.844;6.582;2022-10-16T13:53:40;7.53;;;1.98;;
65737;SDS011;52478;51.844;6.582;2022-10-16T13:56:10;7.68;;;1.80;;
65737;SDS011;52478;51.844;6.582;2022-10-16T13:58:38;7.75;;;1.70;;
65737;SDS011;52478;51.844;6.582;2022-10-16T14:01:18;6.80;;;1.88;;
65737;SDS011;52478;51.844;6.582;2022-10-16T14:03:49;6.40;;;2.13;;
65737;SDS011;52478;51.844;6.582;2022-10-16T14:06:17;5.97;;;1.83;;
65737;SDS011;52478;51.844;6.582;2022-10-16T14:08:48;7.28;;;2.20;;
65737;SDS011;52478;51.844;6.582;2022-10-16T14:11:20;7.72;;;2.00;;
65737;SDS011;52478;51.844;6.582;2022-10-16T14:13:49;8.05;;;1.85;;
65737;SDS011;52478;51.844;6.582;2022-10-16T14:16:18;6.85;;;1.75;;
65737;SDS011;52478;51.844;6.582;2022-10-16T14:18:51;6.90;;;1.88;;
65737;SDS011;52478;51.844;6.582;2022-10-16T14:21:22;6.90;;;1.88;;
65737;SDS011;52478;51.844;6.582;2022-10-16T14:23:49;8.27;;;1.95;;
65737;SDS011;52478;51.844;6.582;2022-10-16T14:26:17;6.75;;;1.67;;
65737;SDS011;52478;51.844;6.582;2022-10-16T14:28:45;9.57;;;1.90;;
65737;SDS011;52478;51.844;6.582;2022-10-16T14:31:23;6.18;;;1.70;;
65737;SDS011;52478;51.844;6.582;2022-10-16T14:33:51;6.50;;;1.83;;
65737;SDS011;52478;51.844;6.582;2022-10-16T14:36:18;5.28;;;1.67;;
65737;SDS011;52478;51.844;6.582;2022-10-16T14:38:48;5.70;;;1.33;;
65737;SDS011;52478;51.844;6.582;2022-10-16T14:41:19;8.77;;;1.55;;
65737;SDS011;52478;51.844;6.582;2022-10-16T14:43:49;5.97;;;1.60;;
65737;SDS011;52478;51.844;6.582;2022-10-16T14:46:18;7.97;;;1.90;;
65737;SDS011;52478;51.844;6.582;2022-10-16T14:48:48;6.25;;;1.73;;
65737;SDS011;52478;51.844;6.582;2022-10-16T14:51:17;6.97;;;1.55;;
65737;SDS011;52478;51.844;6.582;2022-10-16T14:53:44;6.57;;;1.80;;
65737;SDS011;52478;51.844;6.582;2022-10-16T14:56:14;4.57;;;1.60;;
65737;SDS011;52478;51.844;6.582;2022-10-16T14:58:43;4.88;;;1.65;;
65737;SDS011;52478;51.844;6.582;2022-10-16T15:01:10;5.57;;;1.75;;
65737;SDS011;52478;51.844;6.582;2022-10-16T15:03:37;6.53;;;1.50;;
65737;SDS011;52478;51.844;6.582;2022-10-16T15:06:07;5.95;;;1.73;;
65737;SDS011;52478;51.844;6.582;2022-10-16T15:08:36;6.30;;;2.00;;
65737;SDS011;52478;51.844;6.582;2022-10-16T15:11:03;8.05;;;2.05;;
65737;SDS011;52478;51.844;6.582;2022-10-16T15:13:29;5.38;;;1.30;;
65737;SDS011;52478;51.844;6.582;2022-10-16T15:15:56;5.90;;;1.48;;
65737;SDS011;52478;51.844;6.582;2022-10-16T15:18:23;6.63;;;1.88;;
65737;SDS011;52478;51.844;6.582;2022-10-16T15:20:50;5.07;;;1.60;;
65737;SDS011;52478;51.844;6.582;2022-10-16T15:23:19;5.97;;;1.98;;
65737;SDS011;52478;51.844;6.582;2022-10-16T15:25:48;6.15;;;1.63;;
65737;SDS011;52478;51.844;6.582;2022-10-16T15:28:15;5.22;;;1.77;;
65737;SDS011;52478;51.844;6.582;2022-10-16T15:30:43;6.55;;;1.73;;